Time;durP1;ratioP1;P1;durP2;ratioP2;P2;SDS_P1;SDS_P2;PMS_P1;PMS_P2;Temp;Humidity;BMP_temperature;BMP_pressure;BME280_temperature;BME280_humidity;BME280_pressure;Samples;Min_cycle;Max_cycle;Signal;HPM_P1;HPM_P2
2021/07/31 00:01:38;;;;;;;2.50;1.10;;;;;;;19.85;57.93;99856.56;5013637;28;20599;-78
2021/07/31 00:04:05;;;;;;;1.23;1.13;;;;;;;19.80;58.36;99858.94;5012367;28;20685;-78
2021/07/31 00:06:33;;;;;;;3.87;1.27;;;;;;;19.77;58.38;99848.47;5008106;28;20229;-78
2021/07/31 00:09:00;;;;;;;1.40;1.30;;;;;;;19.75;58.63;99862.16;5028171;28;20534;-78
2021/07/31 00:11:27;;;;;;;2.30;1.40;;;;;;;19.72;58.74;99846.28;5018227;28;20602;-78
2021/07/31 00:13:53;;;;;;;4.50;1.40;;;;;;;19.70;58.76;99842.94;5006879;28;20201;-78
2021/07/31 00:16:20;;;;;;;2.23;1.37;;;;;;;19.69;58.81;99846.66;5014489;28;20221;-78
2021/07/31 00:18:46;;;;;;;1.90;1.13;;;;;;;19.68;58.90;99841.44;5000341;28;20205;-78
2021/07/31 00:21:13;;;;;;;1.63;0.90;;;;;;;19.67;58.94;99842.47;5010721;28;20737;-78
2021/07/31 00:23:40;;;;;;;5.87;1.33;;;;;;;19.66;59.03;99844.31;5011481;28;20288;-78
2021/07/31 00:26:07;;;;;;;1.77;1.20;;;;;;;19.64;58.96;99842.81;5014432;28;20201;-78
2021/07/31 00:28:33;;;;;;;1.27;1.10;;;;;;;19.60;59.01;99842.31;5007539;28;20559;-78
2021/07/31 00:31:00;;;;;;;1.60;1.33;;;;;;;19.57;59.25;99837.25;5013649;28;20226;-78
2021/07/31 00:33:26;;;;;;;2.33;1.30;;;;;;;19.55;59.35;99838.44;5007300;28;20209;-78
2021/07/31 00:35:53;;;;;;;3.73;1.20;;;;;;;19.52;59.26;99836.09;5013240;28;20209;-78
2021/07/31 00:38:19;;;;;;;2.23;1.23;;;;;;;19.49;59.42;99836.41;5007950;28;20213;-78
2021/07/31 00:40:47;;;;;;;1.77;1.20;;;;;;;19.47;59.62;99833.03;5007268;28;20243;-79
2021/07/31 00:43:14;;;;;;;1.80;1.13;;;;;;;19.44;59.69;99834.22;5000945;28;20210;-79
2021/07/31 00:45:41;;;;;;;1.70;1.30;;;;;;;19.40;59.88;99840.97;5008089;28;20210;-79
2021/07/31 00:48:07;;;;;;;2.97;1.30;;;;;;;19.36;60.11;99839.63;5014716;28;20213;-79
2021/07/31 00:50:34;;;;;;;1.63;1.20;;;;;;;19.32;60.13;99846.44;5008499;28;20226;-80
2021/07/31 00:53:01;;;;;;;2.20;1.30;;;;;;;19.29;60.39;99846.75;5006609;28;20207;-79
2021/07/31 00:55:29;;;;;;;2.37;1.30;;;;;;;19.27;60.65;99838.00;5008873;28;20200;-79
2021/07/31 00:57:58;;;;;;;2.60;1.47;;;;;;;19.24;60.54;99836.47;5014158;28;20573;-79
2021/07/31 01:00:25;;;;;;;2.77;1.30;;;;;;;19.20;60.86;99824.31;5015037;28;20230;-80
2021/07/31 01:02:51;;;;;;;3.27;1.10;;;;;;;19.18;60.96;99837.16;5025219;28;20207;-78
2021/07/31 01:05:18;;;;;;;2.03;1.30;;;;;;;19.18;61.02;99831.75;5010670;28;20221;-78
2021/07/31 01:07:45;;;;;;;1.70;1.20;;;;;;;19.17;61.04;99829.25;5015715;28;20207;-78
2021/07/31 01:10:12;;;;;;;1.40;1.20;;;;;;;19.13;60.98;99828.75;5015057;28;20229;-79
2021/07/31 01:12:40;;;;;;;2.50;1.07;;;;;;;19.11;60.85;99838.88;5014796;28;20224;-78
2021/07/31 01:15:09;;;;;;;2.43;1.50;;;;;;;19.04;60.58;99833.31;5008085;28;20207;-79
2021/07/31 01:17:36;;;;;;;1.43;0.97;;;;;;;18.99;60.75;99832.97;5012649;28;20213;-79
2021/07/31 01:20:02;;;;;;;1.33;1.23;;;;;;;18.93;60.54;99833.66;5014721;28;20231;-78
2021/07/31 01:22:30;;;;;;;2.70;1.30;;;;;;;18.90;60.48;99825.91;5011133;28;20206;-78
2021/07/31 01:24:57;;;;;;;2.57;1.30;;;;;;;18.86;60.37;99831.81;5022516;28;20209;-79
2021/07/31 01:27:24;;;;;;;2.30;1.23;;;;;;;18.83;60.06;99837.53;5013433;28;20213;-78
2021/07/31 01:29:50;;;;;;;1.33;0.90;;;;;;;18.78;60.14;99838.06;5026313;28;20293;-78
2021/07/31 01:32:17;;;;;;;3.23;1.00;;;;;;;18.74;60.01;99831.31;5013735;28;20232;-78
2021/07/31 01:34:44;;;;;;;1.47;1.00;;;;;;;18.71;59.69;99831.66;5007647;28;20207;-78
2021/07/31 01:37:10;;;;;;;2.43;1.30;;;;;;;18.67;59.57;99838.41;5006708;28;20207;-78
2021/07/31 01:39:38;;;;;;;2.67;1.50;;;;;;;18.62;59.28;99832.69;5010107;28;20678;-79
2021/07/31 01:42:06;;;;;;;4.57;1.17;;;;;;;18.57;59.08;99841.25;5001829;28;20211;-79
2021/07/31 01:44:33;;;;;;;2.70;1.10;;;;;;;18.53;58.89;99839.88;5013099;28;20303;-79
2021/07/31 01:46:59;;;;;;;2.07;1.10;;;;;;;18.48;58.61;99844.09;5006749;28;20225;-79
2021/07/31 01:49:26;;;;;;;3.80;1.00;;;;;;;18.45;58.74;99844.44;5013270;28;20232;-79
2021/07/31 01:51:52;;;;;;;2.40;0.93;;;;;;;18.42;58.57;99845.63;5013016;28;20227;-79
2021/07/31 01:54:19;;;;;;;2.57;1.10;;;;;;;18.39;58.41;99845.94;5011537;28;20210;-79
2021/07/31 01:56:47;;;;;;;4.73;1.00;;;;;;;18.35;58.38;99834.66;5008163;28;20211;-79
2021/07/31 01:59:14;;;;;;;2.10;1.20;;;;;;;18.33;58.38;99841.22;5006228;28;20204;-77
2021/07/31 02:01:40;;;;;;;4.60;1.30;;;;;;;18.30;58.16;99830.75;5012010;28;20600;-77
2021/07/31 02:04:07;;;;;;;2.00;0.90;;;;;;;18.26;58.40;99830.25;5005907;28;20208;-77
2021/07/31 02:06:33;;;;;;;4.27;1.00;;;;;;;18.23;58.38;99821.66;5003297;28;20685;-79
2021/07/31 02:09:00;;;;;;;1.83;1.07;;;;;;;18.20;58.16;99822.00;5011120;28;20233;-79
2021/07/31 02:11:27;;;;;;;6.77;1.40;;;;;;;18.17;58.40;99815.06;5011847;28;20223;-78
2021/07/31 02:13:54;;;;;;;3.33;1.00;;;;;;;18.14;58.25;99809.16;5006337;28;20210;-79
2021/07/31 02:16:25;;;;;;;4.70;1.40;;;;;;;18.11;58.19;99806.81;5003005;28;20219;-79
2021/07/31 02:18:52;;;;;;;1.57;0.93;;;;;;;18.04;58.16;99812.88;5009864;28;20211;-79
2021/07/31 02:21:20;;;;;;;2.70;1.07;;;;;;;18.01;58.02;99806.97;5013491;28;20229;-79
2021/07/31 02:23:47;;;;;;;2.20;0.90;;;;;;;17.96;58.00;99804.75;5012143;28;20203;-79
2021/07/31 02:26:14;;;;;;;3.97;1.07;;;;;;;17.93;58.08;99802.38;5012138;28;20230;-79
2021/07/31 02:28:40;;;;;;;2.40;0.90;;;;;;;17.90;57.83;99797.34;5010199;28;20211;-79
2021/07/31 02:31:11;;;;;;;2.90;1.00;;;;;;;17.88;57.86;99790.44;5012331;28;20706;-79
2021/07/31 02:33:38;;;;;;;4.17;1.20;;;;;;;17.84;57.93;99797.16;5013050;28;20273;-79
2021/07/31 02:36:05;;;;;;;2.73;0.90;;;;;;;17.80;57.71;99788.56;5013353;28;20221;-79
2021/07/31 02:38:33;;;;;;;3.80;1.10;;;;;;;17.79;58.09;99794.09;5012867;28;20626;-79
2021/07/31 02:41:00;;;;;;;3.90;1.30;;;;;;;17.76;57.98;99794.44;5003929;28;20242;-80
2021/07/31 02:43:26;;;;;;;2.27;1.07;;;;;;;17.75;58.15;99790.88;5009427;28;20562;-79
2021/07/31 02:45:53;;;;;;;2.23;1.00;;;;;;;17.75;58.27;99780.13;5012850;28;20560;-79
2021/07/31 02:48:21;;;;;;;3.53;1.10;;;;;;;17.75;58.17;99780.13;5002152;28;20216;-79
2021/07/31 02:50:47;;;;;;;4.13;1.20;;;;;;;17.70;58.08;99782.47;5007645;28;20245;-80
2021/07/31 02:53:14;;;;;;;2.83;1.00;;;;;;;17.61;58.07;99786.09;5012493;28;20210;-80
2021/07/31 02:55:40;;;;;;;2.13;0.80;;;;;;;17.57;58.36;99774.81;5012743;28;20218;-80
2021/07/31 02:58:07;;;;;;;1.87;1.00;;;;;;;17.53;58.19;99776.16;5008787;28;20209;-80
2021/07/31 03:00:33;;;;;;;2.43;1.00;;;;;;;17.50;58.23;99781.88;5012459;28;20240;-80
2021/07/31 03:03:00;;;;;;;2.97;0.90;;;;;;;17.46;58.38;99772.44;5011957;28;20205;-80
2021/07/31 03:05:28;;;;;;;5.33;1.40;;;;;;;17.42;58.32;99771.06;5012617;28;20650;-79
2021/07/31 03:07:54;;;;;;;1.50;0.70;;;;;;;17.41;58.49;99771.22;5011665;28;20687;-79
2021/07/31 03:10:21;;;;;;;2.93;1.00;;;;;;;17.39;58.52;99766.00;5012473;28;20229;-79
2021/07/31 03:12:47;;;;;;;4.40;1.23;;;;;;;17.35;58.44;99760.13;5011935;28;20213;-78
2021/07/31 03:15:14;;;;;;;1.93;0.97;;;;;;;17.37;58.38;99761.81;5011513;28;20209;-78
2021/07/31 03:17:41;;;;;;;3.57;0.90;;;;;;;17.36;58.39;99755.59;5007184;28;20207;-78
2021/07/31 03:20:08;;;;;;;1.63;0.83;;;;;;;17.36;58.38;99758.28;5014550;28;20241;-78
2021/07/31 03:22:36;;;;;;;2.63;0.87;;;;;;;17.35;58.53;99752.03;5008498;28;20210;-79
2021/07/31 03:25:03;;;;;;;3.50;0.93;;;;;;;17.33;58.49;99748.66;5016135;28;20209;-79
2021/07/31 03:27:29;;;;;;;1.80;0.80;;;;;;;17.34;58.54;99754.91;5013300;28;20208;-79
2021/07/31 03:29:56;;;;;;;2.67;0.80;;;;;;;17.33;58.58;99762.13;5016719;28;20196;-79
2021/07/31 03:32:22;;;;;;;3.27;1.27;;;;;;;17.31;58.68;99755.22;5015753;28;20220;-79
2021/07/31 03:34:49;;;;;;;2.47;0.90;;;;;;;17.30;58.66;99754.38;5010333;28;20214;-79
2021/07/31 03:37:15;;;;;;;3.50;0.93;;;;;;;17.28;58.69;99761.75;5011072;28;20231;-79
2021/07/31 03:39:43;;;;;;;2.70;0.90;;;;;;;17.26;58.65;99746.78;5015837;28;20213;-79
2021/07/31 03:42:10;;;;;;;3.07;1.23;;;;;;;17.24;58.72;99760.38;5015727;28;20201;-79
2021/07/31 03:44:36;;;;;;;1.23;1.00;;;;;;;17.23;58.73;99755.16;5015193;28;20217;-79
2021/07/31 03:47:03;;;;;;;1.30;1.00;;;;;;;17.19;58.63;99757.34;5014652;28;20208;-79
2021/07/31 03:49:32;;;;;;;4.70;1.00;;;;;;;17.17;58.92;99764.75;5006017;28;20220;-79
2021/07/31 03:51:58;;;;;;;2.67;1.10;;;;;;;17.17;58.61;99756.69;5013097;28;20249;-79
2021/07/31 03:54:25;;;;;;;1.93;0.80;;;;;;;17.16;58.48;99759.53;5015189;28;20213;-79
2021/07/31 03:56:52;;;;;;;2.50;0.90;;;;;;;17.17;58.32;99762.06;5015543;28;20207;-79
2021/07/31 03:59:19;;;;;;;3.37;0.90;;;;;;;17.18;58.28;99757.53;5010014;28;20201;-79
2021/07/31 04:01:45;;;;;;;4.27;1.10;;;;;;;17.19;58.34;99759.22;5007762;28;20677;-79
2021/07/31 04:04:12;;;;;;;3.50;1.20;;;;;;;17.19;58.26;99761.91;5015542;28;20209;-80
2021/07/31 04:06:38;;;;;;;2.67;1.30;;;;;;;17.19;58.47;99764.59;5015958;28;20206;-79
2021/07/31 04:09:06;;;;;;;2.80;0.90;;;;;;;17.18;58.31;99754.81;5006692;28;20212;-79
2021/07/31 04:11:32;;;;;;;3.23;0.83;;;;;;;17.18;58.47;99761.06;5015752;28;20221;-79
2021/07/31 04:14:00;;;;;;;3.67;1.00;;;;;;;17.19;58.67;99762.75;5015368;28;20215;-78
2021/07/31 04:16:27;;;;;;;1.67;0.80;;;;;;;17.20;58.66;99761.72;5014817;28;20211;-79
2021/07/31 04:18:53;;;;;;;2.27;0.80;;;;;;;17.21;58.71;99758.00;5005914;28;20209;-78
2021/07/31 04:21:20;;;;;;;2.77;1.17;;;;;;;17.21;58.69;99763.41;5016003;28;20258;-79
2021/07/31 04:23:46;;;;;;;2.17;0.90;;;;;;;17.21;58.54;99763.41;5010682;28;20206;-78
2021/07/31 04:26:13;;;;;;;3.43;1.07;;;;;;;17.22;58.59;99761.56;5014263;28;20214;-79
2021/07/31 04:28:40;;;;;;;2.30;0.90;;;;;;;17.22;58.43;99759.69;5012260;28;20894;-78
2021/07/31 04:31:10;;;;;;;2.70;0.90;;;;;;;17.23;58.42;99760.53;5014855;28;20293;-78
2021/07/31 04:33:37;;;;;;;1.53;0.77;;;;;;;17.25;58.20;99748.63;5013878;28;20666;-78
2021/07/31 04:36:05;;;;;;;1.80;1.03;;;;;;;17.28;58.07;99747.47;5014057;28;20208;-78
2021/07/31 04:38:31;;;;;;;1.93;1.23;;;;;;;17.34;58.03;99758.44;5014277;28;20210;-78
2021/07/31 04:40:58;;;;;;;1.90;1.00;;;;;;;17.37;57.76;99757.28;5003616;28;20240;-78
2021/07/31 04:43:25;;;;;;;3.33;0.80;;;;;;;17.42;57.71;99749.53;5010317;28;20686;-78
2021/07/31 04:45:52;;;;;;;3.23;1.20;;;;;;;17.46;57.62;99758.97;5007745;28;20276;-78
2021/07/31 04:48:19;;;;;;;2.40;1.00;;;;;;;17.50;57.64;99748.72;5008810;28;20211;-78
2021/07/31 04:50:46;;;;;;;1.67;1.00;;;;;;;17.55;57.31;99754.47;5007079;28;20234;-78
2021/07/31 04:53:13;;;;;;;2.10;0.90;;;;;;;17.58;57.52;99749.56;5005743;28;20219;-78
2021/07/31 04:55:39;;;;;;;1.23;0.90;;;;;;;17.61;57.28;99753.78;5007356;28;20241;-79
2021/07/31 04:58:06;;;;;;;2.77;1.07;;;;;;;17.63;57.16;99751.78;5003430;28;20572;-79
2021/07/31 05:00:32;;;;;;;1.87;0.93;;;;;;;17.64;57.31;99764.28;5006107;28;20245;-78
2021/07/31 05:03:05;;;;;;;2.53;1.07;;;;;;;17.65;57.11;99757.88;5012161;28;20557;-79
2021/07/31 05:05:33;;;;;;;3.03;0.97;;;;;;;17.70;57.04;99760.94;5014777;28;20213;-79
2021/07/31 05:08:00;;;;;;;4.30;1.03;;;;;;;17.73;57.00;99766.00;5021137;28;20213;-78
2021/07/31 05:10:26;;;;;;;1.73;0.67;;;;;;;17.77;56.91;99761.94;5010621;28;20744;-79
2021/07/31 05:12:53;;;;;;;2.67;0.70;;;;;;;17.79;56.97;99770.72;5017073;28;20207;-79
2021/07/31 05:15:19;;;;;;;1.47;0.90;;;;;;;17.84;56.72;99759.44;5014129;28;20211;-79
2021/07/31 05:17:46;;;;;;;2.23;0.90;;;;;;;17.88;56.66;99772.44;5012761;28;20216;-79
2021/07/31 05:20:13;;;;;;;2.97;1.00;;;;;;;17.93;56.59;99771.91;5012197;28;20233;-78
2021/07/31 05:22:41;;;;;;;2.47;0.80;;;;;;;17.96;56.46;99764.34;5014213;28;20210;-79
2021/07/31 05:25:08;;;;;;;4.03;1.17;;;;;;;17.99;56.41;99747.84;5007235;28;20203;-79
2021/07/31 05:27:35;;;;;;;1.63;0.80;;;;;;;18.01;56.30;99766.56;5009080;28;20218;-79
2021/07/31 05:30:01;;;;;;;3.97;0.97;;;;;;;18.03;56.32;99773.47;5015355;28;20226;-79
2021/07/31 05:32:28;;;;;;;2.23;1.03;;;;;;;18.06;56.24;99763.38;5013946;28;20687;-79
2021/07/31 05:34:55;;;;;;;3.77;1.10;;;;;;;18.10;56.22;99770.09;5018880;28;20221;-78
2021/07/31 05:37:21;;;;;;;1.47;0.80;;;;;;;18.16;56.27;99769.44;5013899;28;20222;-78
2021/07/31 05:39:49;;;;;;;3.23;1.00;;;;;;;18.24;55.94;99772.16;5020113;28;20212;-79
2021/07/31 05:42:15;;;;;;;2.97;1.10;;;;;;;18.30;55.85;99779.53;5013118;28;20236;-78
2021/07/31 05:44:42;;;;;;;2.03;1.00;;;;;;;18.36;55.65;99770.78;5012207;28;20206;-79
2021/07/31 05:47:11;;;;;;;1.50;0.90;;;;;;;18.46;55.51;99771.44;5007479;28;20637;-78
2021/07/31 05:49:38;;;;;;;3.83;1.23;;;;;;;18.54;55.33;99767.91;5007206;28;20223;-78
2021/07/31 05:52:05;;;;;;;3.00;1.03;;;;;;;18.66;55.20;99769.28;5012746;28;20203;-78
2021/07/31 05:54:32;;;;;;;4.03;1.20;;;;;;;18.79;54.83;99774.19;5016123;28;20207;-78
2021/07/31 05:57:00;;;;;;;1.37;0.93;;;;;;;18.92;54.58;99761.00;5004926;28;20203;-78
2021/07/31 05:59:27;;;;;;;2.20;1.10;;;;;;;19.04;53.73;99767.69;5008175;28;20208;-78
2021/07/31 06:01:53;;;;;;;4.17;1.00;;;;;;;19.13;53.59;99768.53;5008283;28;20224;-78
2021/07/31 06:04:20;;;;;;;2.20;1.00;;;;;;;19.23;53.36;99772.69;5017214;28;20204;-78
2021/07/31 06:06:46;;;;;;;2.63;0.90;;;;;;;19.34;52.75;99771.50;5015737;28;20208;-78
2021/07/31 06:09:13;;;;;;;1.57;0.90;;;;;;;19.46;53.16;99764.69;5012823;28;20639;-78
2021/07/31 06:11:39;;;;;;;1.63;0.80;;;;;;;19.58;52.41;99763.31;5008304;28;20237;-78
2021/07/31 06:14:07;;;;;;;1.73;1.13;;;;;;;19.72;52.28;99753.59;5012262;28;20205;-78
2021/07/31 06:16:33;;;;;;;1.77;0.67;;;;;;;19.87;52.11;99745.59;5010920;28;20213;-78
2021/07/31 06:19:00;;;;;;;2.90;0.80;;;;;;;20.02;51.46;99754.63;5005048;28;20210;-79
2021/07/31 06:21:26;;;;;;;2.17;1.00;;;;;;;20.06;50.65;99750.53;5001872;28;20230;-79
2021/07/31 06:23:53;;;;;;;1.50;0.83;;;;;;;20.12;50.79;99752.50;5009318;28;20225;-80
2021/07/31 06:26:19;;;;;;;2.40;0.87;;;;;;;20.20;50.38;99748.91;5006095;28;20216;-80
2021/07/31 06:28:46;;;;;;;1.47;0.90;;;;;;;20.19;50.39;99756.19;5009007;28;20660;-80
2021/07/31 06:31:14;;;;;;;2.27;0.97;;;;;;;20.14;50.27;99752.31;5008941;28;20231;-80
2021/07/31 06:33:40;;;;;;;2.20;0.90;;;;;;;20.04;50.27;99745.31;5011738;28;20240;-79
2021/07/31 06:36:07;;;;;;;2.20;1.00;;;;;;;19.96;50.54;99753.47;5010890;28;20216;-79
2021/07/31 06:38:33;;;;;;;2.80;0.87;;;;;;;19.88;50.47;99750.81;5019983;28;20213;-79
2021/07/31 06:41:00;;;;;;;3.17;1.03;;;;;;;19.81;50.76;99757.09;5016869;28;20234;-79
2021/07/31 06:43:26;;;;;;;2.40;0.87;;;;;;;19.72;50.90;99759.84;5015814;28;20216;-79
2021/07/31 06:45:53;;;;;;;3.63;0.80;;;;;;;19.74;51.21;99768.63;5013472;28;20211;-79
2021/07/31 06:48:21;;;;;;;1.73;0.90;;;;;;;19.80;51.24;99767.06;5008456;28;20266;-78
2021/07/31 06:50:47;;;;;;;2.43;1.00;;;;;;;19.94;51.32;99771.72;5009269;28;20228;-79
2021/07/31 06:53:14;;;;;;;1.50;0.83;;;;;;;20.08;50.72;99754.72;5010092;28;20201;-79
2021/07/31 06:55:40;;;;;;;1.10;0.80;;;;;;;20.16;50.27;99759.22;5006762;28;20656;-79
2021/07/31 06:58:07;;;;;;;2.30;0.90;;;;;;;20.23;50.47;99765.63;5006209;28;20216;-79
2021/07/31 07:00:33;;;;;;;1.47;0.73;;;;;;;20.27;50.02;99774.19;5008353;28;20700;-79
2021/07/31 07:03:00;;;;;;;1.30;0.87;;;;;;;20.35;50.43;99766.88;5005453;28;20223;-79
2021/07/31 07:05:28;;;;;;;2.27;0.70;;;;;;;20.53;49.80;99765.72;5012190;28;20209;-79
2021/07/31 07:07:54;;;;;;;2.43;0.90;;;;;;;20.65;48.98;99750.72;5012898;28;20205;-79
2021/07/31 07:10:21;;;;;;;1.53;0.73;;;;;;;20.78;48.43;99757.19;5009783;28;20237;-80
2021/07/31 07:12:47;;;;;;;1.50;0.70;;;;;;;20.93;48.44;99748.28;5010624;28;20204;-79
2021/07/31 07:15:14;;;;;;;2.57;1.00;;;;;;;21.02;47.84;99749.84;5015813;28;20203;-79
2021/07/31 07:17:40;;;;;;;1.17;0.87;;;;;;;21.12;47.65;99750.44;5008193;28;20225;-79
2021/07/31 07:20:08;;;;;;;1.77;0.90;;;;;;;21.24;47.22;99745.41;5012253;28;20226;-80
2021/07/31 07:22:36;;;;;;;3.63;0.90;;;;;;;21.33;46.93;99739.69;5011588;28;20418;-79
2021/07/31 07:25:02;;;;;;;2.63;0.80;;;;;;;21.48;47.23;99736.97;5003382;28;20216;-79
2021/07/31 07:27:29;;;;;;;3.80;1.00;;;;;;;21.68;46.70;99756.16;5003833;28;20211;-78
2021/07/31 07:29:55;;;;;;;1.93;0.87;;;;;;;21.82;45.80;99750.72;5006289;28;20217;-80
2021/07/31 07:32:22;;;;;;;3.23;1.00;;;;;;;21.95;44.82;99743.75;5007367;28;20222;-79
2021/07/31 07:34:48;;;;;;;2.47;1.00;;;;;;;21.98;44.92;99763.19;5006222;28;20199;-80
2021/07/31 07:37:15;;;;;;;1.67;0.98;;;;;;;22.01;44.46;99753.88;5009041;28;20203;-79
2021/07/31 07:39:43;;;;;;;2.35;0.90;;;;;;;22.03;44.13;99768.94;5006796;28;20568;-80
2021/07/31 07:42:09;;;;;;;1.92;0.85;;;;;;;21.90;44.16;99766.00;5013556;28;20627;-79
2021/07/31 07:44:36;;;;;;;3.63;1.00;;;;;;;21.78;44.60;99754.00;5011174;28;20210;-79
2021/07/31 07:47:03;;;;;;;1.20;0.85;;;;;;;21.71;45.02;99751.19;5012274;28;20209;-79
2021/07/31 07:49:30;;;;;;;4.17;1.00;;;;;;;21.67;45.35;99766.19;5008473;28;20207;-79
2021/07/31 07:51:57;;;;;;;1.00;0.90;;;;;;;21.73;45.25;99757.28;5012768;28;20229;-79
2021/07/31 07:54:23;;;;;;;5.33;0.90;;;;;;;21.81;44.30;99767.19;5013230;28;20206;-79
2021/07/31 07:57:00;;;;;;;3.30;0.90;;;;;;;21.83;44.24;99746.16;5009992;28;20210;-78
2021/07/31 07:59:30;;;;;;;2.20;0.90;;;;;;;21.90;44.23;99752.47;5004552;28;20216;-79
2021/07/31 08:01:57;;;;;;;2.60;0.80;;;;;;;21.97;44.05;99757.97;5013163;28;20325;-78
2021/07/31 08:04:23;;;;;;;1.13;0.97;;;;;;;22.01;44.06;99757.44;5010003;28;20206;-78
2021/07/31 08:06:50;;;;;;;1.85;0.88;;;;;;;22.07;44.26;99759.34;5019215;28;20200;-78
2021/07/31 08:09:17;;;;;;;1.17;0.70;;;;;;;22.19;43.98;99772.41;5019018;28;20214;-78
2021/07/31 08:11:43;;;;;;;4.40;1.15;;;;;;;22.25;44.14;99767.03;5013715;28;20236;-79
2021/07/31 08:14:11;;;;;;;1.33;0.90;;;;;;;22.29;43.79;99764.78;5011323;28;20203;-78
2021/07/31 08:16:38;;;;;;;1.75;0.73;;;;;;;22.22;44.01;99775.56;5016225;28;20203;-78
2021/07/31 08:19:06;;;;;;;1.40;0.98;;;;;;;22.16;44.15;99774.47;5012639;28;20205;-78
2021/07/31 08:21:33;;;;;;;0.80;0.80;;;;;;;22.08;44.34;99777.31;5008395;28;20291;-78
2021/07/31 08:24:00;;;;;;;2.60;0.80;;;;;;;22.01;44.28;99765.56;5009046;28;20210;-78
2021/07/31 08:26:26;;;;;;;2.22;0.90;;;;;;;21.94;44.69;99775.44;5013676;28;20714;-78
2021/07/31 08:28:53;;;;;;;2.07;0.70;;;;;;;21.88;44.60;99770.78;5009024;28;20207;-78
2021/07/31 08:31:20;;;;;;;1.80;0.93;;;;;;;21.82;44.90;99785.13;5012330;28;20233;-78
2021/07/31 08:33:47;;;;;;;1.87;0.80;;;;;;;21.78;45.33;99781.94;5010449;28;20227;-78
2021/07/31 08:36:13;;;;;;;1.30;1.03;;;;;;;21.76;45.20;99791.28;5015379;28;20209;-80
2021/07/31 08:38:40;;;;;;;1.40;0.80;;;;;;;21.72;45.45;99787.28;5018211;28;20208;-80
2021/07/31 08:41:09;;;;;;;2.17;0.90;;;;;;;21.67;45.68;99781.59;5010492;28;20233;-80
2021/07/31 08:43:36;;;;;;;2.07;0.90;;;;;;;21.59;45.21;99798.81;5013725;28;20233;-79
2021/07/31 08:46:07;;;;;;;2.70;0.90;;;;;;;21.48;45.77;99789.28;5015969;28;20201;-79
2021/07/31 08:48:35;;;;;;;1.50;0.90;;;;;;;21.45;46.25;99805.91;5009155;28;20215;-78
2021/07/31 08:51:02;;;;;;;3.40;0.90;;;;;;;21.38;46.16;99815.81;5010978;28;20233;-78
2021/07/31 08:53:31;;;;;;;2.73;0.83;;;;;;;21.28;46.45;99819.84;5003836;28;20222;-79
2021/07/31 08:55:58;;;;;;;3.07;1.07;;;;;;;21.15;47.04;99815.84;5009379;28;20212;-79
2021/07/31 08:58:24;;;;;;;2.37;0.90;;;;;;;21.09;47.64;99813.06;5008151;28;20210;-78
2021/07/31 09:00:51;;;;;;;3.93;1.30;;;;;;;21.03;47.92;99811.09;5013453;28;20227;-78
2021/07/31 09:03:18;;;;;;;2.83;1.00;;;;;;;20.98;47.93;99827.03;5010562;28;20225;-78
2021/07/31 09:05:47;;;;;;;1.40;1.10;;;;;;;20.92;48.31;99823.22;5010403;28;20216;-79
2021/07/31 09:08:13;;;;;;;2.87;1.07;;;;;;;20.82;48.54;99819.06;5007262;28;20469;-77
2021/07/31 09:10:42;;;;;;;2.57;1.40;;;;;;;20.74;48.91;99826.25;5009759;28;20226;-78
2021/07/31 09:13:09;;;;;;;3.43;1.10;;;;;;;20.68;49.39;99832.38;5011822;28;20202;-79
2021/07/31 09:15:38;;;;;;;1.77;0.97;;;;;;;20.67;49.65;99822.59;5007006;28;20206;-80
2021/07/31 09:18:26;;;;;;;3.40;1.03;;;;;;;20.74;50.11;99820.84;5009330;28;20210;-79
2021/07/31 09:21:12;;;;;;;1.80;1.20;;;;;;;20.88;49.70;99827.31;5013280;28;20231;-78
2021/07/31 09:23:47;;;;;;;3.20;1.40;;;;;;;20.93;49.22;99832.19;5012763;28;20214;-78
2021/07/31 09:26:17;;;;;;;2.10;1.07;;;;;;;20.88;49.55;99831.88;5008500;28;20206;-78
2021/07/31 09:28:45;;;;;;;2.43;1.30;;;;;;;20.86;50.07;99828.50;5010001;28;20665;-78
2021/07/31 09:31:15;;;;;;;4.33;1.20;;;;;;;20.86;49.99;99823.94;5007639;28;20272;-79
2021/07/31 09:33:47;;;;;;;3.60;1.20;;;;;;;20.89;49.75;99836.28;5010276;28;20640;-78
2021/07/31 09:36:15;;;;;;;1.83;1.10;;;;;;;20.89;49.57;99822.72;5002276;28;20217;-80
2021/07/31 09:38:44;;;;;;;2.37;1.00;;;;;;;20.88;49.79;99838.13;5008029;28;20204;-79
2021/07/31 09:41:32;;;;;;;2.50;1.13;;;;;;;20.91;49.62;99836.94;5005240;28;20230;-78
2021/07/31 09:44:08;;;;;;;2.03;0.80;;;;;;;20.99;49.78;99839.53;5008864;28;20198;-78
2021/07/31 09:46:37;;;;;;;3.13;1.40;;;;;;;21.08;49.46;99830.34;5008388;28;20204;-80
2021/07/31 09:49:05;;;;;;;1.23;1.03;;;;;;;21.21;49.30;99818.88;5005876;28;20903;-79
2021/07/31 09:51:37;;;;;;;3.40;1.13;;;;;;;21.35;49.21;99837.00;5010832;28;20572;-78
2021/07/31 09:54:07;;;;;;;3.30;1.40;;;;;;;21.46;48.54;99820.31;5012131;28;20199;-78
2021/07/31 09:56:39;;;;;;;5.00;1.40;;;;;;;21.49;48.16;99838.91;5013643;28;20205;-78
2021/07/31 09:59:06;;;;;;;3.77;1.50;;;;;;;21.46;48.09;99837.41;5013579;28;20264;-79
2021/07/31 10:01:36;;;;;;;4.60;1.50;;;;;;;21.50;47.72;99826.19;5013068;28;20229;-78
2021/07/31 10:04:03;;;;;;;3.03;1.60;;;;;;;21.57;48.37;99819.81;5007634;28;20205;-78
2021/07/31 10:06:31;;;;;;;1.53;1.20;;;;;;;21.68;47.97;99832.88;5014282;28;20722;-78
2021/07/31 10:08:59;;;;;;;1.90;1.13;;;;;;;21.76;47.37;99832.78;5013180;28;20205;-79
2021/07/31 10:11:27;;;;;;;2.60;1.37;;;;;;;21.82;47.07;99832.03;5006710;28;20239;-79
2021/07/31 10:13:55;;;;;;;2.03;1.10;;;;;;;21.87;47.21;99834.16;5015167;28;20641;-78
2021/07/31 10:16:21;;;;;;;1.30;1.05;;;;;;;21.96;46.82;99830.34;5014665;28;20205;-81
2021/07/31 10:19:02;;;;;;;1.70;1.10;;;;;;;22.01;46.13;99819.78;5014634;28;20824;-81
2021/07/31 10:21:31;;;;;;;1.97;1.00;;;;;;;22.04;46.32;99832.94;5010587;28;20252;-79
2021/07/31 10:24:00;;;;;;;1.70;1.00;;;;;;;22.08;46.46;99836.13;5015857;28;20230;-79
2021/07/31 10:26:28;;;;;;;1.65;0.95;;;;;;;22.16;46.38;99823.31;5014550;28;20314;-80
2021/07/31 10:28:55;;;;;;;2.00;1.17;;;;;;;22.26;46.71;99827.56;5012866;28;20202;-80
2021/07/31 10:31:29;;;;;;;2.65;1.13;;;;;;;22.39;46.09;99833.94;5011706;28;20229;-80
2021/07/31 10:33:56;;;;;;;2.25;1.08;;;;;;;22.50;45.62;99824.47;5008260;28;20224;-80
2021/07/31 10:36:30;;;;;;;2.28;1.00;;;;;;;22.54;45.58;99828.50;5012325;28;20654;-80
2021/07/31 10:38:59;;;;;;;1.45;1.10;;;;;;;22.61;45.56;99831.25;5001252;28;20202;-80
2021/07/31 10:41:57;;;;;;;1.65;1.10;;;;;;;22.65;45.16;99814.38;5010647;28;20722;-80
2021/07/31 10:44:24;;;;;;;3.63;1.25;;;;;;;22.69;45.18;99812.97;5009403;28;20683;-80
2021/07/31 10:46:51;;;;;;;1.95;1.23;;;;;;;22.69;44.82;99812.13;5011258;28;20205;-80
2021/07/31 10:49:35;;;;;;;3.95;1.17;;;;;;;22.72;45.00;99822.59;5013517;28;20260;-80
2021/07/31 10:52:02;;;;;;;2.08;1.23;;;;;;;22.82;45.57;99836.69;5011502;28;20229;-79
2021/07/31 10:55:01;;;;;;;1.92;1.27;;;;;;;22.92;43.86;99833.66;5012548;28;20303;-80
2021/07/31 10:58:06;;;;;;;2.00;1.15;;;;;;;23.03;44.41;99831.22;5014577;28;20206;-80
2021/07/31 11:00:37;;;;;;;1.40;1.10;;;;;;;23.08;44.38;99830.66;5007583;28;20230;-80
2021/07/31 11:03:05;;;;;;;2.03;1.23;;;;;;;23.21;44.04;99833.44;5006755;28;20211;-80
2021/07/31 11:06:01;;;;;;;1.35;0.98;;;;;;;23.28;43.29;99834.34;5007057;28;20202;-80
2021/07/31 11:08:30;;;;;;;3.75;1.25;;;;;;;23.37;43.49;99826.88;5012443;28;20214;-80
2021/07/31 11:10:59;;;;;;;2.08;1.27;;;;;;;23.43;43.28;99835.06;5012737;28;20257;-80
2021/07/31 11:13:52;;;;;;;1.75;0.90;;;;;;;23.54;43.30;99828.25;5011541;28;20216;-80
2021/07/31 11:16:20;;;;;;;1.48;1.00;;;;;;;23.56;42.95;99836.22;5005159;28;20214;-80
2021/07/31 11:18:48;;;;;;;2.35;1.00;;;;;;;23.57;42.68;99837.88;5007760;28;20217;-79
2021/07/31 11:21:16;;;;;;;1.30;1.10;;;;;;;23.53;42.75;99841.00;5012685;28;20590;-79
2021/07/31 11:23:45;;;;;;;2.30;1.05;;;;;;;23.49;42.94;99836.97;5011045;28;20601;-81
2021/07/31 11:26:13;;;;;;;3.47;1.23;;;;;;;23.46;42.88;99834.66;5019741;28;20206;-82
2021/07/31 11:28:40;;;;;;;2.53;1.10;;;;;;;23.43;43.07;99847.81;5019143;28;20562;-82
2021/07/31 11:31:16;;;;;;;2.92;0.95;;;;;;;23.38;43.28;99851.13;5020492;28;20233;-81
2021/07/31 11:33:43;;;;;;;1.75;1.00;;;;;;;23.32;43.17;99835.59;5018012;28;20213;-82
2021/07/31 11:36:13;;;;;;;3.40;1.00;;;;;;;23.31;43.76;99841.25;5017843;28;20210;-82
2021/07/31 11:38:41;;;;;;;2.63;1.10;;;;;;;23.28;43.66;99845.22;5020804;28;20258;-80